Time;durP1;ratioP1;P1;durP2;ratioP2;P2;SDS_P1;SDS_P2;PMS_P1;PMS_P2;Temp;Humidity;BMP_temperature;BMP_pressure;BME280_temperature;BME280_humidity;BME280_pressure;Samples;Min_cycle;Max_cycle;Signal;HPM_P1;HPM_P2
2021/12/19 00:00:34;;;;;;;16.42;10.80;;;;;;;7.41;88.12;103569.22;7395941;19;20025;-57
2021/12/19 00:03:19;;;;;;;16.02;10.43;;;;;;;7.42;88.65;103560.53;7394244;19;20010;-57
2021/12/19 00:08:48;;;;;;;13.88;9.43;;;;;;;7.18;87.76;103563.66;7393746;19;20019;-55
2021/12/19 00:11:18;;;;;;;15.15;9.43;;;;;;;7.09;88.24;103557.50;7392290;19;20014;-56
2021/12/19 00:13:47;;;;;;;14.13;9.23;;;;;;;7.07;88.44;103558.31;7394524;19;20485;-55
2021/12/19 00:16:16;;;;;;;15.20;9.82;;;;;;;7.04;88.30;103561.75;7396789;19;20019;-55
2021/12/19 00:18:47;;;;;;;14.38;9.57;;;;;;;7.04;88.51;103547.84;7393495;19;20066;-56
2021/12/19 00:21:20;;;;;;;12.88;8.50;;;;;;;6.93;87.94;103550.28;7393372;19;20052;-56
2021/12/19 00:23:51;;;;;;;12.48;8.40;;;;;;;6.99;88.34;103546.88;7391303;19;20024;-56
2021/12/19 00:26:20;;;;;;;14.13;9.88;;;;;;;6.98;88.24;103543.41;7390481;19;20014;-52
2021/12/19 00:28:51;;;;;;;15.30;10.90;;;;;;;6.93;88.06;103542.47;7393647;19;20007;-55
2021/12/19 00:31:20;;;;;;;13.68;9.77;;;;;;;6.88;87.97;103545.00;7395575;19;20021;-55
2021/12/19 00:33:49;;;;;;;13.32;9.68;;;;;;;6.80;88.55;103540.53;7395400;19;20018;-56
2021/12/19 00:36:20;;;;;;;13.98;9.75;;;;;;;6.80;88.73;103523.16;7393626;19;20021;-57
2021/12/19 00:38:49;;;;;;;13.77;9.48;;;;;;;6.85;88.94;103531.03;7392173;19;20014;-56
2021/12/19 00:41:18;;;;;;;13.90;9.20;;;;;;;6.93;88.91;103543.34;7393292;19;20010;-57
2021/12/19 00:43:54;;;;;;;14.43;9.70;;;;;;;7.00;88.65;103525.19;7387963;19;20023;-57
2021/12/19 00:46:24;;;;;;;13.50;9.05;;;;;;;7.02;88.24;103539.09;7392136;19;20018;-57
2021/12/19 00:48:55;;;;;;;11.93;8.52;;;;;;;6.98;87.71;103527.78;7389944;19;20045;-57
2021/12/19 00:51:28;;;;;;;13.45;9.25;;;;;;;6.86;87.42;103523.25;7391108;19;20022;-56
2021/12/19 00:53:58;;;;;;;14.18;9.02;;;;;;;6.78;88.17;103522.25;7390503;19;20037;-57
2021/12/19 00:56:26;;;;;;;14.00;9.57;;;;;;;6.77;88.65;103515.28;7389040;19;20017;-55
2021/12/19 00:58:55;;;;;;;13.45;8.65;;;;;;;6.80;88.70;103510.13;7389812;19;20018;-59
2021/12/19 01:01:25;;;;;;;12.50;8.18;;;;;;;6.82;88.61;103510.16;7390057;19;20025;-56
2021/12/19 01:03:54;;;;;;;13.75;9.18;;;;;;;6.87;88.71;103511.09;7392074;19;20018;-57
2021/12/19 01:06:23;;;;;;;13.52;8.57;;;;;;;6.88;88.57;103507.66;7389686;19;20019;-53
2021/12/19 01:08:54;;;;;;;14.27;9.10;;;;;;;6.90;88.54;103504.19;7391311;19;20019;-56
2021/12/19 01:11:23;;;;;;;13.70;8.55;;;;;;;6.97;88.60;103509.50;7389561;19;20019;-57
2021/12/19 01:13:53;;;;;;;13.38;9.23;;;;;;;7.02;88.62;103484.38;7391208;19;20021;-55
2021/12/19 01:16:22;;;;;;;13.50;8.43;;;;;;;6.99;88.34;103500.88;7390720;19;20020;-55
2021/12/19 01:18:51;;;;;;;14.52;9.00;;;;;;;7.05;88.35;103500.03;7390342;19;20017;-55
2021/12/19 01:21:20;;;;;;;13.35;7.97;;;;;;;6.99;87.60;103506.06;7389245;19;20337;-56
2021/12/19 01:23:49;;;;;;;11.52;7.15;;;;;;;6.95;88.23;103490.34;7390852;19;20015;-56
2021/12/19 01:26:21;;;;;;;11.23;7.72;;;;;;;7.02;88.51;103492.19;7388608;19;20082;-52
2021/12/19 01:28:50;;;;;;;11.68;8.20;;;;;;;6.99;88.20;103493.03;7388852;19;20372;-57
2021/12/19 01:31:18;;;;;;;11.73;7.57;;;;;;;7.00;88.39;103493.91;7388932;19;20018;-56
2021/12/19 01:33:47;;;;;;;10.45;7.00;;;;;;;7.08;88.61;103484.47;7389570;19;20010;-55
2021/12/19 01:36:18;;;;;;;12.35;8.00;;;;;;;7.13;88.73;103487.13;7389444;19;20010;-55
2021/12/19 01:38:47;;;;;;;11.93;7.68;;;;;;;7.07;87.98;103480.09;7390011;19;20021;-59
2021/12/19 01:41:16;;;;;;;12.95;7.97;;;;;;;7.04;88.62;103486.13;7390913;19;20072;-55
2021/12/19 01:43:48;;;;;;;12.43;7.47;;;;;;;7.07;88.48;103485.31;7391247;19;20482;-51
2021/12/19 01:46:17;;;;;;;13.93;8.30;;;;;;;7.04;88.30;103486.13;7390030;19;20384;-56
2021/12/19 01:48:45;;;;;;;12.55;8.30;;;;;;;6.99;88.69;103492.16;7388603;19;20021;-56
2021/12/19 01:51:14;;;;;;;16.27;9.35;;;;;;;7.00;89.19;103488.69;7388544;19;20034;-56
2021/12/19 01:53:43;;;;;;;15.10;8.95;;;;;;;7.06;89.01;103486.16;7387549;19;20018;-56
2021/12/19 01:56:12;;;;;;;17.65;10.25;;;;;;;7.00;88.92;103480.88;7386860;19;20040;-55
2021/12/19 01:58:42;;;;;;;16.17;9.57;;;;;;;6.93;89.46;103472.97;7388623;19;20018;-55
2021/12/19 02:01:13;;;;;;;19.77;10.55;;;;;;;6.96;89.85;103482.53;7389552;19;20095;-57
2021/12/19 02:03:42;;;;;;;19.08;10.98;;;;;;;6.90;89.72;103483.34;7388051;19;20010;-55
2021/12/19 02:06:11;;;;;;;20.35;11.05;;;;;;;6.93;90.06;103478.19;7387261;19;20019;-55
2021/12/19 02:08:39;;;;;;;21.45;11.50;;;;;;;7.01;90.35;103472.19;7387765;19;20024;-56
2021/12/19 02:11:10;;;;;;;20.23;10.98;;;;;;;7.04;89.88;103470.50;7388405;19;20021;-55
2021/12/19 02:13:39;;;;;;;20.27;11.57;;;;;;;6.99;89.83;103459.16;7388391;19;20017;-54
2021/12/19 02:16:07;;;;;;;18.27;10.65;;;;;;;6.95;89.82;103466.88;7387429;19;20372;-56
2021/12/19 02:18:39;;;;;;;19.38;10.68;;;;;;;6.96;90.19;103455.63;7387666;19;20015;-54
2021/12/19 02:21:11;;;;;;;16.88;10.18;;;;;;;6.92;90.16;103459.94;7390076;19;20036;-54
2021/12/19 02:23:39;;;;;;;17.52;10.25;;;;;;;6.97;90.16;103455.63;7387823;19;20015;-56
2021/12/19 02:26:08;;;;;;;14.65;8.75;;;;;;;6.96;90.21;103453.00;7386516;19;20070;-56
2021/12/19 02:28:37;;;;;;;15.40;8.50;;;;;;;6.89;90.30;103446.81;7387378;19;20017;-53
2021/12/19 02:31:06;;;;;;;12.02;7.22;;;;;;;6.85;90.55;103440.72;7387873;19;20018;-56
2021/12/19 02:33:41;;;;;;;9.05;5.78;;;;;;;6.73;90.21;103448.34;7387773;19;20010;-55
2021/12/19 02:36:27;;;;;;;7.82;4.88;;;;;;;6.65;91.03;103452.56;7388814;19;20018;-56
2021/12/19 02:49:48;;;;;;;6.27;3.63;;;;;;;6.61;91.06;103436.03;7389429;19;20018;-56
2021/12/19 02:52:20;;;;;;;5.20;2.97;;;;;;;6.68;91.27;103426.56;7386753;19;20011;-56
2021/12/19 02:54:49;;;;;;;;;;;;;;;6.74;90.90;103426.66;7389266;19;20079;-53
2021/12/19 02:57:18;;;;;;;7.65;3.97;;;;;;;6.72;90.78;103425.75;7385333;19;19945;-54
2021/12/19 02:59:47;;;;;;;6.32;3.42;;;;;;;6.80;90.98;103423.25;7386250;19;20088;-53
2021/12/19 03:02:16;;;;;;;6.30;3.70;;;;;;;6.85;90.65;103418.97;7388364;19;20010;-56
2021/12/19 03:04:54;;;;;;;5.78;3.67;;;;;;;6.93;90.35;103415.63;7386600;19;20061;-56
2021/12/19 03:07:26;;;;;;;7.30;4.20;;;;;;;6.91;89.78;103419.06;7389751;19;20011;-55
2021/12/19 03:10:11;;;;;;;9.38;5.22;;;;;;;6.84;89.72;103417.22;7395402;19;20015;-55
2021/12/19 03:12:55;;;;;;;7.80;4.60;;;;;;;6.85;90.23;103413.75;7394716;19;20046;-51
2021/12/19 03:18:08;;;;;;;9.13;5.15;;;;;;;6.98;90.45;103406.97;7393608;19;20368;-54
2021/12/19 03:20:38;;;;;;;9.52;5.28;;;;;;;7.00;90.52;103406.13;7393512;19;20021;-56
2021/12/19 03:23:12;;;;;;;9.48;5.45;;;;;;;7.04;90.49;103399.25;7393450;19;20010;-52
2021/12/19 03:25:41;;;;;;;10.05;5.15;;;;;;;7.11;90.08;103401.06;7395302;19;20090;-56
2021/12/19 03:28:13;;;;;;;8.25;5.05;;;;;;;7.08;89.70;103399.28;7393978;19;20462;-55
2021/12/19 03:30:44;;;;;;;8.38;5.38;;;;;;;7.16;90.09;103399.38;7393150;19;20090;-55
2021/12/19 03:33:14;;;;;;;10.07;5.55;;;;;;;7.19;90.09;103388.09;7393725;19;20025;-56
2021/12/19 03:35:44;;;;;;;12.48;5.95;;;;;;;7.23;89.93;103379.47;7392731;19;20087;-58
2021/12/19 03:38:17;;;;;;;9.50;5.80;;;;;;;7.21;89.60;103381.19;7393708;19;20015;-57
2021/12/19 03:40:52;;;;;;;8.35;4.80;;;;;;;7.22;89.67;103376.00;7393163;19;20070;-55
2021/12/19 03:43:23;;;;;;;9.48;5.22;;;;;;;7.23;89.40;103369.91;7394454;19;20023;-57
2021/12/19 03:45:52;;;;;;;8.57;4.95;;;;;;;7.18;89.57;103361.16;7393068;19;20020;-53
2021/12/19 03:48:21;;;;;;;7.70;4.32;;;;;;;7.17;89.84;103363.75;7394270;19;20025;-54
2021/12/19 03:50:52;;;;;;;8.82;5.00;;;;;;;7.14;89.93;103363.72;7391950;19;20018;-56
2021/12/19 03:53:23;;;;;;;10.18;5.20;;;;;;;7.09;90.26;103354.13;7392385;19;20128;-56
2021/12/19 03:55:54;;;;;;;10.98;5.75;;;;;;;7.08;90.52;103351.50;7394190;19;20021;-57
2021/12/19 03:58:23;;;;;;;10.20;5.38;;;;;;;7.09;90.81;103355.84;7393158;19;20506;-56
2021/12/19 04:00:54;;;;;;;9.93;5.65;;;;;;;7.13;90.90;103354.16;7393829;19;20094;-57
2021/12/19 04:03:23;;;;;;;9.48;5.38;;;;;;;7.15;91.15;103348.09;7394643;19;20033;-54
2021/12/19 04:05:54;;;;;;;9.95;5.75;;;;;;;7.16;91.08;103341.13;7391141;19;20018;-56
2021/12/19 04:08:26;;;;;;;11.77;6.30;;;;;;;7.12;91.10;103340.25;7393101;19;20011;-52
2021/12/19 04:10:56;;;;;;;13.38;7.07;;;;;;;7.11;91.10;103330.66;7394540;19;20336;-53
2021/12/19 04:13:25;;;;;;;11.80;6.75;;;;;;;7.08;91.59;103330.66;7392253;19;20018;-55
2021/12/19 04:15:54;;;;;;;13.02;7.40;;;;;;;7.03;91.81;103321.88;7393601;19;20014;-57
2021/12/19 04:18:23;;;;;;;14.75;7.35;;;;;;;7.01;91.98;103321.88;7391237;19;20015;-60
2021/12/19 04:20:52;;;;;;;15.45;8.15;;;;;;;6.99;92.29;103318.38;7394293;19;20128;-52
2021/12/19 04:23:21;;;;;;;15.30;7.95;;;;;;;6.96;92.55;103314.84;7391158;19;20014;-63
2021/12/19 04:25:52;;;;;;;15.23;7.15;;;;;;;6.96;92.67;103305.28;7391183;19;20337;-57
2021/12/19 04:28:21;;;;;;;14.13;7.70;;;;;;;6.97;92.68;103303.56;7392461;19;20049;-55
2021/12/19 04:30:50;;;;;;;14.55;7.80;;;;;;;7.01;93.12;103294.94;7391228;19;20014;-57
2021/12/19 04:33:21;;;;;;;17.25;8.38;;;;;;;7.00;92.76;103301.00;7392197;19;20324;-56
2021/12/19 04:35:50;;;;;;;16.48;8.30;;;;;;;6.98;92.81;103298.38;7390252;19;20483;-56
2021/12/19 04:52:51;;;;;;;15.65;7.75;;;;;;;7.22;92.38;103291.66;7387871;19;20094;-64
2021/12/19 04:55:42;;;;;;;13.98;8.00;;;;;;;7.24;92.18;103288.19;7391365;19;20089;-62
2021/12/19 04:58:34;;;;;;;15.30;8.00;;;;;;;7.24;92.30;103285.59;7391787;19;20018;-62
2021/12/19 05:01:14;;;;;;;15.65;8.45;;;;;;;7.24;92.16;103279.53;7391408;19;20092;-64
2021/12/19 05:03:50;;;;;;;16.77;8.75;;;;;;;7.20;92.03;103280.34;7391227;19;20066;-61
2021/12/19 05:06:34;;;;;;;12.63;7.60;;;;;;;7.20;92.20;103286.41;7391756;19;20336;-63
2021/12/19 05:14:47;;;;;;;17.13;9.55;;;;;;;7.36;92.44;103276.13;7389807;19;20103;-56
2021/12/19 05:17:20;;;;;;;17.83;9.63;;;;;;;7.39;92.50;103263.13;7392630;19;20025;-62
2021/12/19 05:20:03;;;;;;;19.75;10.63;;;;;;;7.41;92.24;103269.25;7390695;19;20025;-64
2021/12/19 05:22:33;;;;;;;;;;;;;;;7.38;92.15;103266.56;7391946;19;20022;-61
2021/12/19 05:25:14;;;;;;;20.42;11.18;;;;;;;7.37;92.14;103265.72;7391070;19;19918;-64
2021/12/19 05:27:44;;;;;;;19.80;10.10;;;;;;;7.41;92.27;103269.25;7390199;19;20018;-63
2021/12/19 05:30:18;;;;;;;17.20;9.63;;;;;;;7.45;91.83;103282.31;7387592;19;20353;-64
2021/12/19 05:32:48;;;;;;;17.73;9.15;;;;;;;7.44;91.59;103280.56;7390085;19;20630;-63
2021/12/19 05:35:24;;;;;;;17.30;9.98;;;;;;;7.44;91.54;103275.34;7390058;19;20057;-63
2021/12/19 05:46:00;;;;;;;19.35;11.10;;;;;;;7.51;92.13;103264.94;7390016;19;20416;-61
2021/12/19 05:48:29;;;;;;;20.13;11.55;;;;;;;7.58;91.89;103277.22;7390009;19;20113;-63
2021/12/19 05:50:58;;;;;;;19.33;11.10;;;;;;;7.60;91.75;103278.94;7389971;19;20024;-59
2021/12/19 05:53:27;;;;;;;18.42;10.55;;;;;;;7.59;91.60;103272.00;7389850;19;20069;-63
2021/12/19 05:55:57;;;;;;;14.02;8.55;;;;;;;7.54;91.35;103276.31;7390118;19;20025;-62
2021/12/19 05:58:26;;;;;;;16.70;9.15;;;;;;;7.53;91.49;103284.97;7389897;19;20345;-59
2021/12/19 06:00:55;;;;;;;13.75;7.95;;;;;;;7.52;91.49;103287.56;7390771;19;20010;-59
2021/12/19 06:03:26;;;;;;;11.98;6.95;;;;;;;7.57;91.58;103275.47;7390571;19;20335;-63
2021/12/19 06:05:55;;;;;;;9.75;5.53;;;;;;;7.59;91.41;103272.00;7389578;19;20024;-61
2021/12/19 06:08:24;;;;;;;7.57;3.45;;;;;;;7.59;90.81;103268.50;7389649;19;20356;-65
2021/12/19 06:10:53;;;;;;;5.40;2.75;;;;;;;7.52;89.94;103267.59;7391159;19;20406;-65
2021/12/19 06:13:22;;;;;;;3.63;2.17;;;;;;;7.42;88.79;103266.66;7389144;19;20018;-64
2021/12/19 06:15:54;;;;;;;3.10;2.03;;;;;;;7.39;89.39;103260.50;7389035;19;20014;-63
2021/12/19 06:18:27;;;;;;;4.82;1.98;;;;;;;7.38;89.45;103262.25;7388018;19;20038;-64
2021/12/19 06:20:56;;;;;;;5.75;2.45;;;;;;;7.38;89.62;103257.03;7389416;19;20006;-63
2021/12/19 06:23:25;;;;;;;3.33;2.00;;;;;;;7.42;89.69;103264.03;7389505;19;20077;-63
2021/12/19 06:25:54;;;;;;;3.17;1.60;;;;;;;7.45;89.10;103255.38;7389691;19;20475;-62
2021/12/19 06:28:23;;;;;;;3.75;1.85;;;;;;;7.40;89.00;103257.06;7389720;19;20015;-64
2021/12/19 06:30:52;;;;;;;3.63;1.70;;;;;;;7.38;88.89;103254.44;7389234;19;20019;-62
2021/12/19 06:33:21;;;;;;;3.75;1.65;;;;;;;7.41;89.19;103259.66;7388406;19;20014;-63
2021/12/19 06:35:53;;;;;;;2.42;1.35;;;;;;;7.48;89.07;103254.50;7388292;19;20010;-62
2021/12/19 06:38:22;;;;;;;3.25;1.55;;;;;;;7.52;89.09;103249.34;7388888;19;20019;-63
2021/12/19 06:40:51;;;;;;;2.90;1.83;;;;;;;7.59;89.07;103258.97;7389271;19;20015;-64
2021/12/19 06:43:19;;;;;;;2.03;1.30;;;;;;;7.51;87.32;103246.69;7394909;19;20010;-61
2021/12/19 06:45:48;;;;;;;3.08;1.40;;;;;;;7.42;87.71;103251.00;7395714;19;20019;-62
2021/12/19 06:48:19;;;;;;;2.13;1.30;;;;;;;7.35;87.83;103250.91;7395092;19;20182;-62
2021/12/19 06:50:48;;;;;;;1.90;1.10;;;;;;;7.33;87.59;103250.03;7395711;19;20006;-64
2021/12/19 06:53:20;;;;;;;2.40;1.20;;;;;;;7.28;87.40;103240.44;7395740;19;20015;-61
2021/12/19 06:55:49;;;;;;;1.40;0.80;;;;;;;7.30;87.67;103244.78;7395750;19;20011;-64
2021/12/19 06:58:18;;;;;;;1.88;0.85;;;;;;;7.31;87.83;103249.13;7393441;19;20078;-63
2021/12/19 07:00:47;;;;;;;1.35;0.70;;;;;;;7.24;86.63;103245.63;7397570;19;20074;-62
2021/12/19 07:03:16;;;;;;;1.27;0.63;;;;;;;7.17;87.18;103249.91;7397224;19;20037;-63
2021/12/19 07:05:45;;;;;;;1.70;0.82;;;;;;;7.15;87.31;103245.50;7396543;19;20014;-64
2021/12/19 07:08:14;;;;;;;2.03;0.85;;;;;;;7.03;87.39;103249.75;7396192;19;20487;-63
2021/12/19 07:10:46;;;;;;;1.52;0.90;;;;;;;6.97;88.30;103260.13;7397361;19;20025;-62
2021/12/19 07:13:18;;;;;;;2.15;0.90;;;;;;;6.96;88.77;103260.97;7395984;19;20072;-63
2021/12/19 07:15:47;;;;;;;2.10;1.20;;;;;;;6.98;89.11;103247.97;7395982;19;20010;-63
2021/12/19 07:18:16;;;;;;;1.52;0.90;;;;;;;7.05;89.58;103248.06;7395446;19;20014;-65
2021/12/19 07:20:45;;;;;;;2.42;1.13;;;;;;;7.12;89.59;103245.50;7395476;19;20007;-65
2021/12/19 07:23:15;;;;;;;2.17;1.20;;;;;;;7.17;89.43;103242.06;7395864;19;20022;-64
2021/12/19 07:25:48;;;;;;;1.75;1.00;;;;;;;7.14;88.97;103236.84;7396113;19;20020;-64
2021/12/19 07:28:17;;;;;;;2.60;1.48;;;;;;;7.12;89.04;103229.84;7396960;19;20018;-60
2021/12/19 07:30:46;;;;;;;1.98;1.08;;;;;;;7.09;89.04;103221.16;7398463;19;20017;-62
2021/12/19 07:33:15;;;;;;;2.30;1.33;;;;;;;6.95;88.99;103224.47;7393732;19;20021;-61
2021/12/19 07:35:47;;;;;;;3.78;1.50;;;;;;;6.90;89.34;103220.09;7395511;19;20022;-63
2021/12/19 07:38:24;;;;;;;2.63;1.10;;;;;;;6.86;90.04;103223.53;7395532;19;20037;-62
2021/12/19 07:40:57;;;;;;;2.78;1.40;;;;;;;6.83;90.34;103227.84;7395511;19;20025;-64
2021/12/19 07:43:26;;;;;;;2.00;1.15;;;;;;;6.83;90.75;103230.44;7394134;19;20701;-62
2021/12/19 07:45:56;;;;;;;3.40;1.50;;;;;;;6.90;90.86;103222.69;7393486;19;20022;-62
2021/12/19 07:48:25;;;;;;;2.30;1.20;;;;;;;6.98;90.78;103225.38;7394135;19;20400;-64
2021/12/19 07:50:54;;;;;;;2.75;1.35;;;;;;;6.98;90.49;103219.28;7394958;19;20119;-61
2021/12/19 07:53:24;;;;;;;4.75;2.30;;;;;;;7.02;90.69;103221.06;7392700;19;20094;-63
2021/12/19 07:55:55;;;;;;;3.30;1.80;;;;;;;7.06;91.04;103210.69;7393028;19;20058;-62
2021/12/19 07:58:24;;;;;;;2.22;1.52;;;;;;;7.09;90.91;103208.13;7393949;19;20486;-63
2021/12/19 08:00:53;;;;;;;2.90;1.33;;;;;;;7.11;90.98;103210.72;7394805;19;20090;-62
2021/12/19 08:03:22;;;;;;;2.55;1.30;;;;;;;7.10;90.49;103203.75;7393924;19;20017;-64
2021/12/19 08:05:51;;;;;;;2.97;1.33;;;;;;;7.07;90.51;103208.97;7392955;19;20037;-64
2021/12/19 08:08:25;;;;;;;2.88;1.52;;;;;;;7.01;90.85;103215.00;7393640;19;20087;-61
2021/12/19 08:13:38;;;;;;;3.05;1.35;;;;;;;7.02;91.54;103215.84;7391979;19;20018;-62
2021/12/19 08:16:07;;;;;;;3.17;1.65;;;;;;;7.05;91.53;103203.72;7392626;19;20014;-62
2021/12/19 08:18:37;;;;;;;2.83;1.73;;;;;;;7.08;91.55;103202.91;7391634;19;20014;-62
2021/12/19 08:21:05;;;;;;;3.65;1.92;;;;;;;7.13;91.75;103209.00;7392811;19;20388;-65
2021/12/19 08:23:36;;;;;;;2.50;1.70;;;;;;;7.17;91.81;103195.13;7392744;19;20018;-63
2021/12/19 08:26:07;;;;;;;3.70;1.77;;;;;;;7.17;91.85;103205.56;7392089;19;20349;-62
2021/12/19 08:28:36;;;;;;;4.00;1.83;;;;;;;7.20;91.67;103207.34;7391173;19;20026;-63
2021/12/19 08:31:05;;;;;;;2.40;1.70;;;;;;;7.24;91.61;103201.28;7392557;19;20016;-62
2021/12/19 08:33:34;;;;;;;2.30;1.90;;;;;;;7.24;91.71;103204.75;7391455;19;20015;-64
2021/12/19 08:36:03;;;;;;;4.05;2.05;;;;;;;7.23;91.38;103199.53;7392062;19;20018;-62
2021/12/19 08:38:32;;;;;;;2.78;1.55;;;;;;;7.22;91.29;103187.34;7390935;19;20022;-64
2021/12/19 08:41:01;;;;;;;3.58;1.60;;;;;;;7.21;91.06;103196.91;7391731;19;20383;-60
2021/12/19 08:43:32;;;;;;;1.98;1.45;;;;;;;7.24;91.14;103202.16;7391886;19;20018;-62
2021/12/19 08:46:01;;;;;;;2.67;1.60;;;;;;;7.25;91.26;103201.28;7391007;19;20017;-63
2021/12/19 08:48:30;;;;;;;2.10;1.42;;;;;;;7.30;91.35;103198.72;7363838;19;20074;-64
2021/12/19 08:50:59;;;;;;;3.78;1.95;;;;;;;7.33;91.27;103197.88;7392518;19;20465;-61
2021/12/19 08:53:28;;;;;;;2.33;1.50;;;;;;;7.34;91.18;103191.81;7391286;19;20007;-61
2021/12/19 08:55:57;;;;;;;1.80;1.20;;;;;;;7.33;90.85;103196.13;7391489;19;20011;-59
2021/12/19 08:58:28;;;;;;;1.40;1.05;;;;;;;7.27;90.36;103185.66;7390513;19;20006;-64
2021/12/19 09:01:01;;;;;;;2.08;1.10;;;;;;;7.21;89.46;103193.44;7390101;19;20022;-63
2021/12/19 09:03:31;;;;;;;2.67;1.30;;;;;;;7.09;88.88;103182.03;7392003;19;20029;-60
2021/12/19 09:06:01;;;;;;;2.40;1.00;;;;;;;7.05;89.21;103189.81;7388655;19;20022;-61
2021/12/19 09:08:30;;;;;;;2.53;1.00;;;;;;;7.06;89.36;103183.75;7390489;19;20014;-62
2021/12/19 09:11:00;;;;;;;2.35;1.45;;;;;;;7.08;89.50;103184.66;7388620;19;20021;-62
2021/12/19 09:13:29;;;;;;;2.00;1.30;;;;;;;7.10;89.51;103177.69;7391160;19;20025;-61
2021/12/19 09:16:00;;;;;;;3.50;1.42;;;;;;;7.10;89.40;103182.91;7390216;19;20021;-64
2021/12/19 09:18:30;;;;;;;3.83;1.40;;;;;;;7.13;89.56;103182.94;7390995;19;20022;-63
2021/12/19 09:21:00;;;;;;;2.65;1.75;;;;;;;7.18;89.60;103190.78;7391321;19;20038;-64
2021/12/19 09:23:29;;;;;;;3.28;1.63;;;;;;;7.21;89.55;103190.84;7390979;19;20015;-62
2021/12/19 09:25:58;;;;;;;3.05;1.73;;;;;;;7.27;89.80;103196.09;7387246;19;20364;-61
2021/12/19 09:28:28;;;;;;;4.10;2.03;;;;;;;7.31;89.34;103191.75;7388768;19;20086;-62
2021/12/19 09:30:57;;;;;;;3.60;2.28;;;;;;;7.28;89.27;103190.03;7390364;19;20051;-62
2021/12/19 09:33:28;;;;;;;4.43;2.58;;;;;;;7.26;89.32;103187.41;7390556;19;20118;-63
2021/12/19 09:35:57;;;;;;;6.38;2.97;;;;;;;7.25;88.92;103176.97;7390000;19;20514;-61
2021/12/19 09:38:26;;;;;;;8.50;3.78;;;;;;;7.21;88.93;103181.25;7389897;19;20025;-65
2021/12/19 09:41:00;;;;;;;5.30;3.40;;;;;;;7.20;89.04;103181.25;7390417;19;20297;-62
2021/12/19 09:43:45;;;;;;;5.60;2.80;;;;;;;7.25;89.41;103193.47;7390169;19;20014;-62
2021/12/19 09:46:17;;;;;;;6.68;3.28;;;;;;;7.31;89.50;103191.75;7391050;19;20432;-62
2021/12/19 09:48:50;;;;;;;5.35;2.90;;;;;;;7.36;89.66;103190.94;7389877;19;20017;-56
2021/12/19 09:51:20;;;;;;;4.90;3.10;;;;;;;7.38;89.30;103193.53;7391276;19;20018;-61
2021/12/19 09:53:49;;;;;;;6.22;2.80;;;;;;;7.39;89.15;103182.25;7390229;19;20015;-61
2021/12/19 09:56:18;;;;;;;4.47;3.00;;;;;;;7.40;89.21;103192.69;7389514;19;20019;-63
2021/12/19 09:58:48;;;;;;;6.20;2.92;;;;;;;7.43;89.16;103186.63;7388779;19;20025;-61
2021/12/19 10:01:17;;;;;;;7.22;3.92;;;;;;;7.44;88.68;103191.00;7389423;19;20022;-62
2021/12/19 10:03:49;;;;;;;8.25;4.13;;;;;;;7.39;88.31;103177.03;7389592;19;20022;-59
2021/12/19 10:06:21;;;;;;;7.13;4.15;;;;;;;7.41;88.84;103180.56;7388993;19;20010;-62
2021/12/19 10:08:53;;;;;;;9.13;4.47;;;;;;;7.40;88.46;103178.78;7387616;19;20014;-62
2021/12/19 10:11:44;;;;;;;10.18;5.25;;;;;;;7.38;88.35;103170.06;7388548;19;20118;-63
2021/12/19 10:14:26;;;;;;;8.43;4.57;;;;;;;7.32;87.46;103173.53;7388530;19;20036;-65
2021/12/19 10:16:55;;;;;;;10.88;4.70;;;;;;;7.24;87.63;103181.28;7387897;19;20044;-64
2021/12/19 10:19:43;;;;;;;7.97;4.88;;;;;;;7.24;88.09;103167.38;7386903;19;20021;-61
2021/12/19 10:22:26;;;;;;;11.73;5.22;;;;;;;7.26;88.58;103176.97;7388467;19;20043;-64
2021/12/19 10:24:57;;;;;;;11.32;5.30;;;;;;;7.26;88.60;103176.06;7388595;19;20025;-64
2021/12/19 10:27:37;;;;;;;11.90;5.28;;;;;;;7.27;87.99;103163.03;7387124;19;20046;-60
2021/12/19 10:30:13;;;;;;;11.82;4.68;;;;;;;7.29;87.35;103157.84;7386896;19;20015;-63
2021/12/19 10:33:00;;;;;;;6.90;4.50;;;;;;;7.23;87.26;103150.84;7388690;19;20019;-64
2021/12/19 10:35:34;;;;;;;9.75;5.15;;;;;;;7.21;87.93;103138.69;7387002;19;20011;-61
2021/12/19 10:38:05;;;;;;;8.70;4.65;;;;;;;7.27;88.44;103134.38;7387101;19;20018;-62
2021/12/19 10:40:35;;;;;;;11.07;4.57;;;;;;;7.28;88.25;103138.72;7387042;19;20018;-60
2021/12/19 10:43:07;;;;;;;12.00;5.32;;;;;;;7.25;88.30;103125.66;7387849;19;20447;-60
2021/12/19 10:45:45;;;;;;;11.88;5.10;;;;;;;7.26;88.23;103132.66;7387899;19;20023;-60
2021/12/19 10:48:24;;;;;;;11.20;5.00;;;;;;;7.30;88.83;103125.69;7387853;19;20021;-62
2021/12/19 10:51:05;;;;;;;13.50;5.75;;;;;;;7.38;89.06;103113.59;7390388;19;20110;-54
2021/12/19 10:53:38;;;;;;;11.25;4.80;;;;;;;7.45;88.75;103119.72;7393036;19;20062;-55
2021/12/19 10:56:12;;;;;;;14.20;5.68;;;;;;;7.44;88.36;103117.97;7386423;19;20022;-56
2021/12/19 10:58:45;;;;;;;10.50;4.55;;;;;;;7.44;88.41;103110.13;7386860;19;20140;-54
2021/12/19 11:01:21;;;;;;;10.77;4.93;;;;;;;7.44;88.26;103105.78;7385720;19;20018;-54
2021/12/19 11:03:55;;;;;;;9.18;5.22;;;;;;;7.45;88.57;103101.47;7393324;19;20010;-52
2021/12/19 11:06:31;;;;;;;10.23;4.53;;;;;;;7.51;89.02;103096.25;7388454;19;20531;-55
2021/12/19 11:09:02;;;;;;;11.25;5.20;;;;;;;7.56;89.02;103101.50;7388554;19;20074;-56
2021/12/19 11:11:42;;;;;;;10.93;5.72;;;;;;;7.54;88.32;103091.06;7386340;19;20073;-54
2021/12/19 11:14:12;;;;;;;11.07;5.40;;;;;;;7.52;88.34;103091.91;7387870;19;20018;-56
2021/12/19 11:16:42;;;;;;;10.55;5.10;;;;;;;7.54;88.34;103096.28;7385885;19;20022;-56
2021/12/19 11:19:11;;;;;;;12.57;5.07;;;;;;;7.58;88.59;103095.44;7387920;19;20021;-56
2021/12/19 11:21:43;;;;;;;13.98;5.97;;;;;;;7.63;88.34;103090.22;7388339;19;20030;-55
2021/12/19 11:24:14;;;;;;;11.27;5.00;;;;;;;7.54;87.69;103082.38;7386389;19;20017;-56
2021/12/19 11:26:45;;;;;;;10.98;5.45;;;;;;;7.53;88.06;103083.22;7385134;19;20327;-52
2021/12/19 11:29:15;;;;;;;12.50;6.10;;;;;;;7.54;88.06;103084.97;7393268;19;20353;-55
2021/12/19 11:31:52;;;;;;;11.05;5.10;;;;;;;7.49;87.17;103084.94;7393442;19;20015;-55
2021/12/19 11:34:27;;;;;;;16.40;6.63;;;;;;;7.48;87.61;103088.44;7393001;19;20002;-55
2021/12/19 11:37:05;;;;;;;11.82;5.45;;;;;;;7.51;87.53;103079.72;7391539;19;20024;-53
2021/12/19 11:39:36;;;;;;;12.93;6.20;;;;;;;7.51;87.50;103078.00;7396804;19;20324;-52
2021/12/19 11:42:13;;;;;;;12.97;6.00;;;;;;;7.55;87.48;103076.25;7392414;19;20015;-64
2021/12/19 11:44:57;;;;;;;14.55;6.40;;;;;;;7.60;87.46;103072.81;7392186;19;20036;-55
2021/12/19 11:47:39;;;;;;;16.02;5.55;;;;;;;7.52;86.72;103071.94;7390988;19;20015;-54
2021/12/19 11:50:23;;;;;;;13.57;5.63;;;;;;;7.50;86.94;103075.38;7393250;19;20014;-54
2021/12/19 11:52:57;;;;;;;11.30;5.18;;;;;;;7.44;86.77;103069.25;7391778;19;20516;-52
2021/12/19 11:55:30;;;;;;;11.68;5.13;;;;;;;7.42;87.29;103075.34;7391457;19;20827;-53
2021/12/19 11:58:18;;;;;;;13.15;5.22;;;;;;;7.37;87.18;103064.03;7390797;19;20023;-56
2021/12/19 12:00:54;;;;;;;11.00;4.60;;;;;;;7.41;87.73;103060.56;7391484;19;20078;-52
2021/12/19 12:03:27;;;;;;;12.63;4.95;;;;;;;7.47;87.73;103057.97;7391799;19;20108;-55
2021/12/19 12:06:28;;;;;;;12.15;4.80;;;;;;;7.51;87.67;103053.63;7391307;19;20010;-58
2021/12/19 12:09:16;;;;;;;12.32;4.53;;;;;;;7.56;87.32;103051.94;7397623;19;20010;-51
2021/12/19 12:12:15;;;;;;;10.75;4.47;;;;;;;7.61;87.24;103045.88;7394390;19;20015;-56
2021/12/19 12:14:55;;;;;;;11.68;4.03;;;;;;;7.65;87.27;103044.16;7391684;19;20017;-56
2021/12/19 12:17:34;;;;;;;10.32;3.95;;;;;;;7.66;87.06;103039.78;7391368;19;20010;-56
2021/12/19 12:20:15;;;;;;;10.32;4.32;;;;;;;7.60;86.71;103038.91;7392151;19;20019;-57
2021/12/19 12:22:57;;;;;;;7.85;3.85;;;;;;;7.56;86.43;103029.31;7393203;19;20011;-52
2021/12/19 12:25:42;;;;;;;10.02;4.00;;;;;;;7.57;86.80;103023.22;7393690;19;20535;-53
2021/12/19 12:28:16;;;;;;;8.43;3.60;;;;;;;7.59;87.06;103026.75;7393190;19;20032;-56
2021/12/19 12:30:47;;;;;;;9.20;3.80;;;;;;;7.55;86.92;103013.66;7390787;19;20049;-55
2021/12/19 12:33:22;;;;;;;9.20;4.05;;;;;;;7.58;86.90;103016.31;7390388;19;20010;-53
2021/12/19 12:35:54;;;;;;;10.98;4.05;;;;;;;7.55;86.90;103001.50;7390838;19;20014;-54
2021/12/19 12:38:23;;;;;;;9.65;4.35;;;;;;;7.53;87.11;103008.44;7390782;19;20511;-55